Accident
Last updated: 19 September 2014
Statuts:Préliminaire
Date:mercredi 11 août 2004
Heure:14:23
Type/Sous-type:Silhouette image of generic B732 model; specific model in this crash may look slightly different
Boeing 737-205
Compagnie:Air Guinee Express
Immatriculation: 3X-GCM
Numéro de série: 23469/1266
Année de Fabrication: 1986-08-06 (18 years )
Moteurs: 2 Pratt & Whitney JT8D-17
Equipage:victimes: 0 / à bord: 8
Passagers:victimes: 0 / à bord: 119
Total:victimes: 0 / à bord: 127
Dégats de l'appareil: Perte Totale
Conséquences: Written off (damaged beyond repair)
Lieu de l'accident:Freetown-Lungi International Airport (FNA) (   Sierra Leone) show on map
Phase de vol: Au décollage (TOF)
Nature:Transport de Passagers Intern.
Aéroport de départ:Freetown-Lungi International Airport (FNA/GFLL), Sierra Leone
Aéroport de destination:Conakry Airport (CKY/DGCY), Guinée
Détails:
Air Guinee Express' morning flight to Conakry and Banjul was reportedly delayed due to bad weather. Thunderstorms were still present in the area as the airplane prepared for departure. The take-off sank back during a reduced power (2.06epr) take-off with flaps selected to Position 1. The nr.2 engine and right hand main undercarriage were sheared off before the plane came to rest, a couple of 100 meters past the 10498 feet / 3200 m long runway 12/30.

PROBABLE CAUSE: "Cet accident résulte de la non application par l’équipage de la liste de vérification (check-list) avant le décollage et le manque de coordination entre le copilote qui était le pilote de fonction et le commandant de bord."

Sources:
» AFP
» Concord Times
» Guinéenews
» Reuters

METAR Weather report:
14:00 UTC / local time:
GFLL 111400Z 24006KT 9999 17TS SCT012 FEW027CB OVC110 25/24 Q1012 TS-SW=

15:00 UTC / local time:
GFLL 111500Z 25010KT 9999 17TS SCT008 FEW027CB OVC110 25/24 Q1010 TS/SW=


Photos

photo of Boeing 737-205 3X-GCM
photo of Boeing 737-205 3X-GCM
photo of Boeing 737-205 JA8366
JA8366 was sold as N469NA and later went to Guinee as 3X-GCM
Add your photo of this accident or aircraft
 

Plan
Ce plan montre l'aéroport de départ ainsi que la supposé destination du vol. La ligne fixe reliant les deux aéroports n'est pas le plan de vol exact.
La distance entre Freetown-Lungi International Airport et Conakry Airport est de 116 km (72 miles).

Les informations ci-dessus ne représentent pas l'opinion de la 'Flight Safety Foundation' ou de 'Aviation Safety Network' sur les causes de l'accident. Ces informations prélimimaires sont basées sur les faits tels qui sont connus à ce jour.
languages: English Français Nederlands Deutsch Espanol

Share
Share

Boeing 737-200

  • 96ème loss
  • 1114 built
  • le accident 49ème le plus grave (à ce moment là)
  • le accident 60ème le plus grave (en ce moment)
safety profile

 Sierra Leone
  • le accident 2ème le plus grave (à ce moment là)
  • le accident 2ème le plus grave (en ce moment)
»safety profile